Time;durP1;ratioP1;P1;durP2;ratioP2;P2;SDS_P1;SDS_P2;PMS_P1;PMS_P2;Temp;Humidity;BMP_temperature;BMP_pressure;BME280_temperature;BME280_humidity;BME280_pressure;Samples;Min_cycle;Max_cycle;Signal;HPM_P1;HPM_P2
2023/02/16 00:01:21;;;;;;;24.38;16.88;;;;;10.80;102185.00;;;;5050989;28;20504;-75
2023/02/16 00:03:48;;;;;;;27.77;17.10;;;;;10.80;102180.00;;;;5060433;28;20234;-75
2023/02/16 00:06:17;;;;;;;24.75;17.23;;;;;10.80;102174.00;;;;5051022;28;20234;-75
2023/02/16 00:08:46;;;;;;;26.63;17.45;;;;;10.80;102175.00;;;;5061607;28;20213;-75
2023/02/16 00:14:03;;;;;;;26.92;17.63;;;;;10.80;102176.00;;;;5049359;28;20202;-75
2023/02/16 00:16:32;;;;;;;30.10;19.13;;;;;10.70;102170.00;;;;5052239;28;20195;-75
2023/02/16 00:18:59;;;;;;;27.48;18.77;;;;;10.70;102173.00;;;;5062079;28;20195;-75
2023/02/16 00:21:26;;;;;;;27.73;18.02;;;;;10.70;102173.00;;;;5053732;28;20210;-75
2023/02/16 00:23:54;;;;;;;30.80;19.00;;;;;10.70;102176.00;;;;5047711;28;20644;-75
2023/02/16 00:26:23;;;;;;;27.55;17.35;;;;;10.70;102176.00;;;;5052081;28;20203;-75
2023/02/16 00:28:52;;;;;;;26.73;18.40;;;;;10.70;102173.00;;;;5068386;28;20210;-75
2023/02/16 00:31:22;;;;;;;27.05;17.45;;;;;10.60;102170.00;;;;5069995;28;20255;-75
2023/02/16 00:33:51;;;;;;;25.13;16.77;;;;;10.60;102174.00;;;;5068063;28;20205;-75
2023/02/16 00:36:18;;;;;;;30.70;18.92;;;;;10.60;102171.00;;;;5052911;28;20206;-75
2023/02/16 00:38:45;;;;;;;28.25;17.13;;;;;10.60;102168.00;;;;5068536;28;20199;-75
2023/02/16 00:43:58;;;;;;;26.85;18.05;;;;;10.60;102162.00;;;;5066408;28;20680;-75
2023/02/16 00:46:25;;;;;;;26.13;17.45;;;;;10.50;102164.00;;;;5060460;28;20728;-75
2023/02/16 00:48:54;;;;;;;25.05;17.13;;;;;10.50;102166.00;;;;5049046;28;20199;-75
2023/02/16 00:51:21;;;;;;;28.13;18.27;;;;;10.50;102161.00;;;;5050078;28;20207;-75
2023/02/16 00:53:48;;;;;;;27.55;18.92;;;;;10.50;102159.00;;;;5051704;28;20581;-75
2023/02/16 00:56:20;;;;;;;27.88;18.25;;;;;10.50;102158.00;;;;5068642;28;20283;-75
2023/02/16 00:58:50;;;;;;;26.73;16.75;;;;;10.50;102164.00;;;;5063003;28;20249;-74
2023/02/16 01:01:20;;;;;;;27.58;17.63;;;;;10.40;102170.00;;;;5058299;28;20780;-74
2023/02/16 01:03:48;;;;;;;27.58;17.80;;;;;10.40;102158.00;;;;5056178;28;20231;-74
2023/02/16 01:11:57;;;;;;;29.25;17.45;;;;;10.40;102156.00;;;;5056506;28;20238;-74
2023/02/16 01:14:24;;;;;;;27.10;17.33;;;;;10.40;102153.00;;;;5048824;28;20657;-74
2023/02/16 01:16:51;;;;;;;28.65;17.95;;;;;10.40;102149.00;;;;5049036;28;20204;-74
2023/02/16 01:19:19;;;;;;;26.20;17.17;;;;;10.30;102154.00;;;;5048908;28;20208;-74
2023/02/16 01:21:47;;;;;;;27.33;17.20;;;;;10.30;102156.00;;;;5048478;28;20207;-74
2023/02/16 01:24:15;;;;;;;26.15;17.90;;;;;10.30;102142.00;;;;5048087;28;20223;-74
2023/02/16 01:26:47;;;;;;;27.58;17.85;;;;;10.30;102149.00;;;;5047902;28;20207;-74
2023/02/16 01:29:16;;;;;;;26.63;18.25;;;;;10.30;102142.00;;;;5055437;28;20196;-74
2023/02/16 01:31:44;;;;;;;29.90;18.63;;;;;10.30;102146.00;;;;5055047;28;20199;-74
2023/02/16 01:34:12;;;;;;;27.15;18.27;;;;;10.30;102137.00;;;;5068502;28;20270;-74
2023/02/16 01:36:42;;;;;;;28.60;18.15;;;;;10.20;102144.00;;;;5068030;28;20195;-75
2023/02/16 01:39:12;;;;;;;28.95;18.65;;;;;10.20;102134.00;;;;5067815;28;20579;-75
2023/02/16 01:41:57;;;;;;;27.08;17.80;;;;;10.20;102140.00;;;;5068145;28;20738;-74
2023/02/16 01:44:27;;;;;;;27.15;17.80;;;;;10.20;102125.00;;;;5058188;28;20249;-74
2023/02/16 01:47:00;;;;;;;27.10;17.60;;;;;10.20;102134.00;;;;5054895;28;20273;-74
2023/02/16 01:49:28;;;;;;;29.20;17.77;;;;;10.20;102134.00;;;;5048543;28;20195;-74
2023/02/16 01:52:00;;;;;;;26.50;17.90;;;;;10.20;102127.00;;;;5048352;28;20660;-74
2023/02/16 01:54:36;;;;;;;27.50;18.10;;;;;10.20;102117.00;;;;5062280;28;20214;-74
2023/02/16 01:57:17;;;;;;;25.08;17.38;;;;;10.20;102116.00;;;;5067805;28;20202;-74
2023/02/16 02:00:03;;;;;;;26.00;16.70;;;;;10.20;102116.00;;;;5064027;28;20198;-75
2023/02/16 02:02:36;;;;;;;27.45;18.15;;;;;10.20;102122.00;;;;5065953;28;20660;-75
2023/02/16 02:07:58;;;;;;;27.67;18.10;;;;;10.20;102099.00;;;;5048270;28;20687;-75
2023/02/16 02:10:37;;;;;;;29.38;19.27;;;;;10.20;102109.00;;;;5067694;28;20211;-75
2023/02/16 02:13:08;;;;;;;28.30;18.92;;;;;10.30;102107.00;;;;5047248;28;20224;-75
2023/02/16 02:15:36;;;;;;;25.60;17.45;;;;;10.30;102103.00;;;;5054647;28;20202;-75
2023/02/16 02:18:04;;;;;;;27.10;18.55;;;;;10.30;102105.00;;;;5055151;28;20231;-75
2023/02/16 02:23:42;;;;;;;26.52;16.88;;;;;10.30;102103.00;;;;5006704;28;20254;-75
2023/02/16 02:26:42;;;;;;;27.88;17.48;;;;;10.30;102099.00;;;;5057090;28;20202;-75
2023/02/16 02:29:27;;;;;;;27.23;17.58;;;;;10.40;102106.00;;;;5067904;28;20195;-75
2023/02/16 02:32:01;;;;;;;24.98;17.85;;;;;10.50;102097.00;;;;5065258;28;20992;-74
2023/02/16 02:34:39;;;;;;;29.08;17.17;;;;;10.50;102103.00;;;;5047578;28;20645;-75
2023/02/16 02:37:15;;;;;;;30.70;18.90;;;;;10.50;102091.00;;;;5048183;28;20199;-75
2023/02/16 02:39:53;;;;;;;29.38;18.83;;;;;10.50;102093.00;;;;5047841;28;20207;-74
2023/02/16 02:42:29;;;;;;;28.83;18.35;;;;;10.50;102093.00;;;;5048835;28;20206;-75
2023/02/16 02:45:07;;;;;;;27.70;18.08;;;;;10.50;102097.00;;;;5057094;28;20229;-75
2023/02/16 02:47:39;;;;;;;27.75;17.77;;;;;10.60;102089.00;;;;5051945;28;20235;-75
2023/02/16 02:50:38;;;;;;;28.80;19.15;;;;;10.50;102087.00;;;;5060317;28;20673;-75
2023/02/16 02:53:08;;;;;;;25.92;17.42;;;;;10.60;102084.00;;;;5054877;28;20668;-75
2023/02/16 03:01:13;;;;;;;26.83;17.85;;;;;10.70;102080.00;;;;5062376;28;20649;-75
2023/02/16 03:03:46;;;;;;;29.70;19.63;;;;;10.60;102072.00;;;;5051570;28;20723;-75
2023/02/16 03:06:19;;;;;;;26.73;18.65;;;;;10.70;102067.00;;;;5066137;28;20202;-75
2023/02/16 03:08:51;;;;;;;28.10;18.55;;;;;10.60;102058.00;;;;5071577;28;20195;-75
2023/02/16 03:14:13;;;;;;;26.85;18.52;;;;;10.70;102061.00;;;;5070733;28;20730;-75
2023/02/16 03:16:46;;;;;;;31.70;18.25;;;;;10.60;102055.00;;;;5056770;28;20194;-75
2023/02/16 03:30:24;;;;;;;28.42;18.15;;;;;10.70;102042.00;;;;5051341;28;20213;-75
2023/02/16 03:32:53;;;;;;;27.27;18.40;;;;;10.70;102038.00;;;;5050396;28;20203;-75
2023/02/16 03:35:21;;;;;;;32.17;19.92;;;;;10.80;102050.00;;;;5051868;28;20211;-75
2023/02/16 03:37:49;;;;;;;28.80;19.20;;;;;10.80;102047.00;;;;5051052;28;20211;-75
2023/02/16 03:40:32;;;;;;;29.08;19.50;;;;;10.80;102040.00;;;;5050360;28;20211;-75
2023/02/16 03:43:01;;;;;;;27.25;18.13;;;;;10.90;102051.00;;;;5054066;28;20215;-75
2023/02/16 03:45:29;;;;;;;27.77;19.85;;;;;10.90;102045.00;;;;5054764;28;20227;-75
2023/02/16 03:47:58;;;;;;;27.40;18.40;;;;;10.90;102046.00;;;;5050722;28;20241;-76
2023/02/16 03:50:26;;;;;;;27.77;19.65;;;;;10.90;102055.00;;;;5052480;28;20207;-75
2023/02/16 03:53:05;;;;;;;31.05;18.90;;;;;11.00;102048.00;;;;5051156;28;20203;-75
2023/02/16 03:55:32;;;;;;;28.02;18.17;;;;;11.00;102061.00;;;;5063720;28;20230;-75
2023/02/16 03:58:00;;;;;;;28.30;19.45;;;;;11.00;102060.00;;;;5066747;28;20191;-75
2023/02/16 04:00:28;;;;;;;28.95;19.35;;;;;11.10;102071.00;;;;5062627;28;20242;-75
2023/02/16 04:02:56;;;;;;;31.05;19.40;;;;;11.10;102075.00;;;;5069905;28;20230;-75
2023/02/16 04:05:24;;;;;;;30.58;20.40;;;;;11.10;102067.00;;;;5063393;28;20234;-75
2023/02/16 04:07:51;;;;;;;30.60;19.83;;;;;11.10;102071.00;;;;5050530;28;20195;-75
2023/02/16 04:10:18;;;;;;;30.75;20.33;;;;;11.20;102062.00;;;;5050603;28;20222;-75
2023/02/16 04:12:45;;;;;;;31.00;20.23;;;;;11.20;102059.00;;;;5050424;28;20680;-75
2023/02/16 04:15:14;;;;;;;30.25;19.55;;;;;11.20;102061.00;;;;5058519;28;20187;-75
2023/02/16 04:17:41;;;;;;;31.05;19.30;;;;;11.20;102072.00;;;;5063361;28;20203;-75
2023/02/16 04:20:12;;;;;;;30.52;19.88;;;;;11.30;102072.00;;;;5059505;28;20199;-75
2023/02/16 04:22:40;;;;;;;30.02;19.80;;;;;11.30;102066.00;;;;5069450;28;20202;-75
2023/02/16 04:25:08;;;;;;;28.77;18.98;;;;;11.30;102057.00;;;;5070052;28;20696;-75
2023/02/16 04:27:36;;;;;;;31.50;20.58;;;;;11.40;102057.00;;;;5066223;28;20196;-75
2023/02/16 04:30:05;;;;;;;27.20;19.23;;;;;11.40;102061.00;;;;5049803;28;20673;-75
2023/02/16 04:32:32;;;;;;;28.75;18.58;;;;;11.40;102057.00;;;;5060560;28;20199;-75
2023/02/16 04:35:00;;;;;;;28.88;19.88;;;;;11.50;102063.00;;;;5065998;28;20207;-75
2023/02/16 04:37:28;;;;;;;30.10;20.10;;;;;11.50;102059.00;;;;5049889;28;20207;-75
2023/02/16 04:39:55;;;;;;;26.58;18.65;;;;;11.50;102071.00;;;;5069107;28;20206;-75
2023/02/16 04:42:23;;;;;;;28.30;19.58;;;;;11.50;102064.00;;;;5069473;28;20549;-75
2023/02/16 04:44:50;;;;;;;26.42;18.40;;;;;11.60;102069.00;;;;5070332;28;20219;-75
2023/02/16 04:47:17;;;;;;;28.90;19.92;;;;;11.60;102058.00;;;;5067381;28;20234;-75
2023/02/16 04:49:45;;;;;;;28.02;19.15;;;;;11.60;102056.00;;;;5066312;28;20363;-75
2023/02/16 04:52:12;;;;;;;32.33;20.35;;;;;11.60;102067.00;;;;5050940;28;20207;-75
2023/02/16 04:54:42;;;;;;;28.05;19.38;;;;;11.60;102059.00;;;;5049600;28;20192;-75
2023/02/16 04:57:10;;;;;;;33.33;20.15;;;;;11.70;102064.00;;;;5063441;28;20206;-75
2023/02/16 04:59:38;;;;;;;28.00;19.02;;;;;11.70;102058.00;;;;5055240;28;20738;-75
2023/02/16 05:02:05;;;;;;;29.73;19.30;;;;;11.70;102055.00;;;;5050218;28;20214;-75
2023/02/16 05:04:32;;;;;;;34.60;20.65;;;;;11.80;102060.00;;;;5050404;28;20227;-75
2023/02/16 05:07:00;;;;;;;30.25;19.70;;;;;11.80;102062.00;;;;5049363;28;20210;-75
2023/02/16 05:09:27;;;;;;;30.05;19.52;;;;;11.80;102057.00;;;;5051015;28;20567;-75
2023/02/16 05:14:43;;;;;;;29.52;20.08;;;;;11.80;102042.00;;;;5048918;28;20202;-75
2023/02/16 05:17:13;;;;;;;25.48;18.73;;;;;11.90;102035.00;;;;5062550;28;20215;-75
2023/02/16 05:19:41;;;;;;;30.20;21.10;;;;;11.90;102035.00;;;;5049646;28;20195;-75
2023/02/16 05:22:11;;;;;;;29.45;20.58;;;;;11.90;102026.00;;;;5049784;28;20581;-75
2023/02/16 05:24:38;;;;;;;27.55;18.25;;;;;11.90;102039.00;;;;5049166;28;20215;-75
2023/02/16 05:27:09;;;;;;;26.02;18.90;;;;;11.90;102034.00;;;;5054490;28;20745;-75
2023/02/16 05:29:36;;;;;;;29.55;20.00;;;;;12.00;102032.00;;;;5048885;28;21076;-75
2023/02/16 05:32:04;;;;;;;31.35;20.10;;;;;12.00;102040.00;;;;5050023;28;20231;-75
2023/02/16 05:34:31;;;;;;;30.05;19.90;;;;;12.00;102039.00;;;;5069528;28;20198;-75
2023/02/16 05:36:58;;;;;;;28.88;19.40;;;;;12.00;102035.00;;;;5068547;28;20571;-75
2023/02/16 05:39:26;;;;;;;28.40;18.98;;;;;12.00;102025.00;;;;5068688;28;20723;-75
2023/02/16 05:41:53;;;;;;;30.98;21.17;;;;;12.00;102034.00;;;;5065129;28;20202;-75
2023/02/16 05:44:22;;;;;;;31.27;20.63;;;;;12.00;102035.00;;;;5064555;28;20620;-75
2023/02/16 05:46:49;;;;;;;29.60;18.60;;;;;12.00;102032.00;;;;5067781;28;20235;-75
2023/02/16 05:49:17;;;;;;;37.65;21.90;;;;;12.10;102035.00;;;;5066118;28;20452;-75
2023/02/16 05:51:44;;;;;;;29.92;19.42;;;;;12.10;102025.00;;;;5060015;28;20641;-75
2023/02/16 05:54:16;;;;;;;29.05;20.25;;;;;12.10;102032.00;;;;5057155;28;20545;-75
2023/02/16 05:56:44;;;;;;;30.80;19.73;;;;;12.10;102026.00;;;;5058591;28;20612;-75
2023/02/16 05:59:12;;;;;;;30.85;21.02;;;;;12.10;102026.00;;;;5052885;28;20312;-75
2023/02/16 06:01:41;;;;;;;33.75;21.98;;;;;12.10;102030.00;;;;5052999;28;20687;-75
2023/02/16 06:04:09;;;;;;;34.42;22.55;;;;;12.10;102034.00;;;;5052456;28;20233;-75
2023/02/16 06:06:37;;;;;;;30.20;21.58;;;;;12.10;102029.00;;;;5062482;28;20206;-75
2023/02/16 06:09:05;;;;;;;34.25;22.13;;;;;12.20;102035.00;;;;5068162;28;20199;-75
2023/02/16 06:11:38;;;;;;;33.88;21.58;;;;;12.20;102027.00;;;;5068318;28;20657;-75
2023/02/16 06:14:07;;;;;;;31.60;21.38;;;;;12.20;102027.00;;;;5068465;28;20207;-75
2023/02/16 06:16:36;;;;;;;31.80;21.50;;;;;12.20;102029.00;;;;5067927;28;20202;-75
2023/02/16 06:19:05;;;;;;;34.95;22.17;;;;;12.20;102027.00;;;;5055982;28;20207;-75
2023/02/16 06:21:33;;;;;;;31.77;21.65;;;;;12.20;102030.00;;;;5050232;28;20204;-75
2023/02/16 06:24:00;;;;;;;34.90;21.27;;;;;12.30;102041.00;;;;5054914;28;20204;-75
2023/02/16 06:26:28;;;;;;;30.02;21.27;;;;;12.30;102033.00;;;;5051393;28;20229;-75
2023/02/16 06:28:55;;;;;;;31.85;21.15;;;;;12.30;102042.00;;;;5061152;28;20588;-75
2023/02/16 06:31:23;;;;;;;32.17;22.55;;;;;12.30;102038.00;;;;5068100;28;20195;-75
2023/02/16 06:33:51;;;;;;;30.92;20.38;;;;;12.30;102041.00;;;;5059853;28;20216;-74
2023/02/16 06:36:20;;;;;;;30.20;20.75;;;;;12.30;102045.00;;;;5050290;28;20211;-75
2023/02/16 06:38:47;;;;;;;31.42;22.25;;;;;12.40;102050.00;;;;5064374;28;20576;-75
2023/02/16 06:41:29;;;;;;;29.27;19.88;;;;;12.40;102054.00;;;;5054320;28;20230;-73
2023/02/16 06:43:58;;;;;;;32.70;20.60;;;;;12.40;102054.00;;;;5057093;28;20195;-73
2023/02/16 06:46:25;;;;;;;29.85;20.40;;;;;12.40;102052.00;;;;5063418;28;20272;-75
2023/02/16 06:48:53;;;;;;;29.98;20.00;;;;;12.50;102054.00;;;;5056030;28;20202;-75
2023/02/16 06:51:21;;;;;;;31.17;21.60;;;;;12.50;102045.00;;;;5052589;28;20218;-74
2023/02/16 06:53:49;;;;;;;31.08;21.30;;;;;12.50;102050.00;;;;5052113;28;20207;-73
2023/02/16 06:56:16;;;;;;;33.47;21.52;;;;;12.50;102039.00;;;;5067818;28;20199;-73
2023/02/16 06:58:43;;;;;;;31.52;20.80;;;;;12.60;102044.00;;;;5049540;28;20215;-73
2023/02/16 07:01:11;;;;;;;36.65;22.70;;;;;12.60;102045.00;;;;5058649;28;20568;-73
2023/02/16 07:03:38;;;;;;;32.97;21.90;;;;;12.60;102045.00;;;;5047832;28;20195;-73
2023/02/16 07:06:06;;;;;;;31.48;22.08;;;;;12.60;102044.00;;;;5050861;28;20219;-72
2023/02/16 07:08:35;;;;;;;32.17;22.80;;;;;12.70;102050.00;;;;5047829;28;20222;-73
2023/02/16 07:11:02;;;;;;;34.22;21.88;;;;;12.70;102048.00;;;;5048028;28;20188;-73
2023/02/16 07:13:29;;;;;;;30.60;21.60;;;;;12.70;102039.00;;;;5047186;28;20584;-73
2023/02/16 07:15:57;;;;;;;31.42;21.55;;;;;12.80;102051.00;;;;5062014;28;20199;-73
2023/02/16 07:18:24;;;;;;;31.58;21.92;;;;;12.80;102052.00;;;;5047534;28;20196;-73
2023/02/16 07:20:51;;;;;;;33.67;23.40;;;;;12.90;102059.00;;;;5058293;28;20207;-73
2023/02/16 07:23:20;;;;;;;34.92;23.35;;;;;12.90;102053.00;;;;5065762;28;20207;-73
2023/02/16 07:25:48;;;;;;;35.20;22.90;;;;;12.90;102056.00;;;;5066321;28;20293;-73
2023/02/16 07:28:16;;;;;;;37.00;22.83;;;;;13.00;102060.00;;;;5065611;28;20203;-73
2023/02/16 07:30:43;;;;;;;30.85;22.15;;;;;13.00;102059.00;;;;5064122;28;20202;-73
2023/02/16 07:33:10;;;;;;;32.78;22.30;;;;;13.10;102069.00;;;;5066711;28;20213;-73
2023/02/16 07:35:38;;;;;;;34.42;23.90;;;;;13.10;102070.00;;;;5054897;28;20199;-73
2023/02/16 07:38:06;;;;;;;31.75;22.65;;;;;13.10;102066.00;;;;5049925;28;20199;-73
2023/02/16 07:40:33;;;;;;;35.78;24.70;;;;;13.20;102058.00;;;;5050706;28;20212;-73
2023/02/16 07:43:03;;;;;;;36.67;24.13;;;;;13.20;102066.00;;;;5050235;28;20210;-73
2023/02/16 07:45:32;;;;;;;32.17;21.70;;;;;13.20;102064.00;;;;5050629;28;20242;-73
2023/02/16 07:47:59;;;;;;;33.50;22.50;;;;;13.30;102071.00;;;;5050252;28;20580;-73
2023/02/16 07:50:27;;;;;;;34.42;23.50;;;;;13.30;102079.00;;;;5056450;28;20210;-74
2023/02/16 07:52:54;;;;;;;31.10;22.05;;;;;13.40;102080.00;;;;5058399;28;20195;-74
2023/02/16 07:55:21;;;;;;;33.20;23.50;;;;;13.40;102073.00;;;;5051715;28;20206;-74
2023/02/16 07:57:53;;;;;;;29.30;22.15;;;;;13.40;102081.00;;;;5057011;28;20195;-74
2023/02/16 08:00:22;;;;;;;31.65;22.27;;;;;13.50;102087.00;;;;5066858;28;20195;-73
2023/02/16 08:02:50;;;;;;;33.22;22.90;;;;;13.50;102089.00;;;;5060105;28;20207;-73
2023/02/16 08:05:17;;;;;;;34.40;23.27;;;;;13.50;102086.00;;;;5059072;28;20227;-73
2023/02/16 08:07:44;;;;;;;33.47;21.65;;;;;13.60;102096.00;;;;5070615;28;20672;-73
2023/02/16 08:10:12;;;;;;;34.45;24.10;;;;;13.60;102094.00;;;;5071119;28;20574;-73
2023/02/16 08:12:43;;;;;;;33.45;22.48;;;;;13.60;102100.00;;;;5069966;28;20700;-74
2023/02/16 08:15:10;;;;;;;32.85;21.45;;;;;13.70;102097.00;;;;5067850;28;20206;-74
2023/02/16 08:17:39;;;;;;;31.98;22.20;;;;;13.70;102102.00;;;;5052675;28;20199;-74
2023/02/16 08:20:09;;;;;;;35.10;23.23;;;;;13.70;102094.00;;;;5057616;28;20215;-74
2023/02/16 08:22:36;;;;;;;34.33;24.55;;;;;13.70;102099.00;;;;5056410;28;20261;-74
2023/02/16 08:25:04;;;;;;;31.02;22.85;;;;;13.70;102104.00;;;;5048573;28;20196;-74
2023/02/16 08:27:32;;;;;;;32.88;22.05;;;;;13.80;102101.00;;;;5051175;28;20292;-74
2023/02/16 08:29:59;;;;;;;33.63;23.45;;;;;13.80;102100.00;;;;5069067;28;20210;-74
2023/02/16 08:32:27;;;;;;;29.98;21.58;;;;;13.80;102103.00;;;;5070714;28;20215;-74
2023/02/16 08:34:56;;;;;;;33.08;23.30;;;;;13.90;102103.00;;;;5053128;28;21099;-74
2023/02/16 08:37:23;;;;;;;34.55;22.40;;;;;13.90;102100.00;;;;5050660;28;20206;-74
2023/02/16 08:39:50;;;;;;;34.67;21.52;;;;;13.90;102108.00;;;;5056949;28;20203;-74
2023/02/16 08:42:18;;;;;;;31.52;21.45;;;;;13.90;102108.00;;;;5070012;28;20202;-73
2023/02/16 08:44:45;;;;;;;34.65;22.92;;;;;14.00;102107.00;;;;5068592;28;20688;-73
2023/02/16 08:47:13;;;;;;;31.60;23.05;;;;;14.00;102101.00;;;;5068855;28;20234;-73
2023/02/16 08:49:40;;;;;;;34.28;23.48;;;;;14.00;102117.00;;;;5054393;28;20203;-73
2023/02/16 08:52:11;;;;;;;34.38;22.83;;;;;14.00;102111.00;;;;5049441;28;20206;-73
2023/02/16 08:54:39;;;;;;;34.72;22.52;;;;;14.00;102114.00;;;;5052458;28;20287;-73
2023/02/16 08:57:07;;;;;;;32.33;22.58;;;;;14.00;102119.00;;;;5058900;28;20195;-73
2023/02/16 08:59:34;;;;;;;31.63;21.50;;;;;14.10;102119.00;;;;5069626;28;20206;-73
2023/02/16 09:02:02;;;;;;;30.27;21.20;;;;;14.10;102111.00;;;;5068612;28;20210;-73
2023/02/16 09:04:30;;;;;;;29.85;21.20;;;;;14.10;102116.00;;;;5069429;28;20225;-73
2023/02/16 09:06:58;;;;;;;30.05;22.25;;;;;14.10;102111.00;;;;5069241;28;20798;-73
2023/02/16 09:09:27;;;;;;;31.00;21.80;;;;;14.10;102119.00;;;;5069302;28;20252;-73
2023/02/16 09:11:56;;;;;;;31.42;22.10;;;;;14.20;102130.00;;;;5052086;28;20466;-73
2023/02/16 09:14:23;;;;;;;33.00;22.17;;;;;14.20;102120.00;;;;5063479;28;20195;-73
2023/02/16 09:16:51;;;;;;;30.77;21.77;;;;;14.20;102126.00;;;;5069365;28;20210;-73
2023/02/16 09:19:20;;;;;;;29.40;20.58;;;;;14.20;102128.00;;;;5069195;28;20229;-73
2023/02/16 09:21:49;;;;;;;35.38;22.85;;;;;14.20;102127.00;;;;5049172;28;20192;-73
2023/02/16 09:24:16;;;;;;;32.22;22.52;;;;;14.20;102134.00;;;;5049446;28;20234;-74
2023/02/16 09:26:45;;;;;;;34.97;22.65;;;;;14.20;102120.00;;;;5049856;28;20238;-74
2023/02/16 09:29:15;;;;;;;31.08;22.45;;;;;14.20;102113.00;;;;5064686;28;20207;-73
2023/02/16 09:31:43;;;;;;;31.90;21.88;;;;;14.20;102111.00;;;;5054957;28;20191;-74
2023/02/16 09:34:16;;;;;;;33.15;21.83;;;;;14.20;102115.00;;;;5068290;28;20201;-74
2023/02/16 09:36:44;;;;;;;32.55;22.20;;;;;14.30;102109.00;;;;5067002;28;20195;-74
2023/02/16 09:39:12;;;;;;;31.27;21.80;;;;;14.30;102109.00;;;;5069143;28;20222;-74
2023/02/16 09:41:59;;;;;;;31.17;21.83;;;;;14.30;102111.00;;;;5049355;28;20234;-74
2023/02/16 09:44:39;;;;;;;28.20;21.17;;;;;14.30;102119.00;;;;5049114;28;20581;-74
2023/02/16 09:47:13;;;;;;;30.10;20.58;;;;;14.40;102122.00;;;;5056335;28;20230;-74
2023/02/16 09:49:43;;;;;;;29.20;21.48;;;;;14.40;102118.00;;;;5052031;28;20568;-74
2023/02/16 09:52:26;;;;;;;33.78;22.65;;;;;14.30;102116.00;;;;5069281;28;20217;-74
2023/02/16 09:54:56;;;;;;;34.50;20.50;;;;;14.40;102116.00;;;;5055503;28;20570;-75
2023/02/16 09:57:40;;;;;;;33.17;21.65;;;;;14.30;102121.00;;;;5054741;28;20289;-75
2023/02/16 10:00:17;;;;;;;29.55;21.80;;;;;14.40;102114.00;;;;5054203;28;20226;-74
2023/02/16 10:02:48;;;;;;;31.20;22.15;;;;;14.40;102107.00;;;;5048433;28;20257;-74
2023/02/16 10:05:25;;;;;;;35.50;21.58;;;;;14.30;102131.00;;;;5057036;28;20861;-75
2023/02/16 10:08:05;;;;;;;27.58;21.60;;;;;14.30;102132.00;;;;5065805;28;20198;-74
2023/02/16 10:10:42;;;;;;;31.70;21.00;;;;;14.30;102132.00;;;;5057867;28;20198;-75
2023/02/16 10:13:22;;;;;;;30.15;21.40;;;;;14.30;102137.00;;;;5047547;28;20206;-75
2023/02/16 10:15:50;;;;;;;28.27;20.98;;;;;14.30;102135.00;;;;5053171;28;20203;-74
2023/02/16 10:18:23;;;;;;;29.52;20.83;;;;;14.30;102128.00;;;;5065645;28;20211;-74
2023/02/16 10:20:55;;;;;;;31.67;21.27;;;;;14.30;102127.00;;;;5051888;28;20215;-74
2023/02/16 10:23:42;;;;;;;30.13;20.65;;;;;14.30;102130.00;;;;5058106;28;20661;-74
2023/02/16 10:26:17;;;;;;;34.28;22.52;;;;;14.40;102132.00;;;;5047273;28;20231;-74
2023/02/16 10:28:48;;;;;;;29.80;20.88;;;;;14.40;102127.00;;;;5047396;28;20261;-74
2023/02/16 10:31:23;;;;;;;33.03;22.80;;;;;14.40;102127.00;;;;5048143;28;20203;-74
2023/02/16 10:34:12;;;;;;;34.67;22.13;;;;;14.50;102117.00;;;;5046928;28;20206;-74
2023/02/16 10:36:52;;;;;;;29.15;20.42;;;;;14.50;102132.00;;;;5047724;28;20214;-74
2023/02/16 10:39:26;;;;;;;29.13;21.02;;;;;14.60;102128.00;;;;5058459;28;20317;-74
2023/02/16 10:42:02;;;;;;;28.30;20.42;;;;;14.60;102127.00;;;;5065815;28;20194;-74
2023/02/16 10:44:36;;;;;;;29.58;21.63;;;;;14.60;102122.00;;;;5048447;28;21009;-74
2023/02/16 10:47:06;;;;;;;29.92;21.10;;;;;14.70;102118.00;;;;5047735;28;20721;-74
2023/02/16 10:49:35;;;;;;;31.90;22.00;;;;;14.70;102125.00;;;;5048831;28;20223;-74
2023/02/16 10:52:03;;;;;;;30.13;21.55;;;;;14.80;102126.00;;;;5065166;28;20187;-74
2023/02/16 10:54:32;;;;;;;28.98;21.88;;;;;14.80;102116.00;;;;5062584;28;20206;-74
2023/02/16 10:57:02;;;;;;;30.90;22.00;;;;;14.90;102128.00;;;;5065633;28;20214;-75
2023/02/16 10:59:37;;;;;;;29.35;21.73;;;;;14.90;102113.00;;;;5061722;28;20252;-75
2023/02/16 11:02:18;;;;;;;28.75;20.38;;;;;14.90;102110.00;;;;5051644;28;20195;-74
2023/02/16 11:04:47;;;;;;;27.60;20.52;;;;;15.00;102106.00;;;;5048257;28;20223;-74
2023/02/16 11:07:17;;;;;;;27.95;20.58;;;;;15.10;102114.00;;;;5047792;28;20219;-74
2023/02/16 11:09:46;;;;;;;29.15;21.40;;;;;15.10;102105.00;;;;5062827;28;20203;-75
2023/02/16 11:12:29;;;;;;;29.08;21.52;;;;;15.10;102102.00;;;;5061488;28;20570;-75
2023/02/16 11:15:01;;;;;;;32.72;20.70;;;;;15.20;102101.00;;;;5063632;28;20206;-74
2023/02/16 11:17:30;;;;;;;29.15;20.88;;;;;15.20;102090.00;;;;5063197;28;21135;-74
2023/02/16 11:20:01;;;;;;;27.95;20.00;;;;;15.30;102097.00;;;;5058720;28;20226;-75
2023/02/16 11:22:32;;;;;;;30.38;21.17;;;;;15.30;102090.00;;;;5061096;28;20257;-75
2023/02/16 11:25:22;;;;;;;27.85;20.13;;;;;15.30;102092.00;;;;5062554;28;20653;-75
2023/02/16 11:27:54;;;;;;;28.92;20.67;;;;;15.40;102095.00;;;;5070772;28;21083;-75
2023/02/16 11:30:32;;;;;;;29.23;20.35;;;;;15.40;102096.00;;;;5070650;28;20199;-75
2023/02/16 11:33:01;;;;;;;31.25;21.83;;;;;15.50;102095.00;;;;5070782;28;20186;-75
2023/02/16 11:35:31;;;;;;;27.75;20.35;;;;;15.60;102097.00;;;;5067553;28;20195;-75
2023/02/16 11:37:59;;;;;;;28.50;21.05;;;;;15.60;102095.00;;;;5067317;28;20187;-75
2023/02/16 11:40:29;;;;;;;30.42;22.27;;;;;15.60;102085.00;;;;5051319;28;20192;-75
2023/02/16 11:42:58;;;;;;;30.77;21.58;;;;;15.70;102078.00;;;;5051933;28;20200;-75
2023/02/16 11:45:30;;;;;;;29.13;20.70;;;;;15.70;102072.00;;;;5059124;28;20203;-76
2023/02/16 11:48:00;;;;;;;29.65;21.92;;;;;15.70;102076.00;;;;5057598;28;20226;-76
2023/02/16 11:50:28;;;;;;;27.70;19.08;;;;;15.80;102081.00;;;;5053313;28;20199;-75
2023/02/16 11:52:58;;;;;;;25.65;19.40;;;;;15.80;102075.00;;;;5060156;28;20203;-76
2023/02/16 11:55:31;;;;;;;28.25;19.80;;;;;15.90;102073.00;;;;5054968;28;20210;-75
2023/02/16 11:58:18;;;;;;;26.02;19.48;;;;;15.90;102060.00;;;;5050120;28;20200;-75
2023/02/16 12:01:00;;;;;;;27.00;20.10;;;;;16.00;102064.00;;;;5050263;28;20261;-75
2023/02/16 12:03:49;;;;;;;26.80;19.40;;;;;16.10;102063.00;;;;5054955;28;20199;-75
2023/02/16 12:06:32;;;;;;;26.85;19.38;;;;;16.10;102046.00;;;;5041375;28;20234;-76
2023/02/16 12:09:13;;;;;;;29.67;20.75;;;;;16.20;102045.00;;;;5057138;28;20195;-76
2023/02/16 12:11:51;;;;;;;25.95;18.52;;;;;16.30;102049.00;;;;5058726;28;20195;-75
2023/02/16 12:14:33;;;;;;;25.42;18.58;;;;;16.30;102053.00;;;;5052135;28;20195;-75
2023/02/16 12:17:12;;;;;;;24.33;18.63;;;;;16.40;102054.00;;;;5057947;28;20202;-76
2023/02/16 12:19:43;;;;;;;26.85;18.45;;;;;16.50;102052.00;;;;5057035;28;20202;-75
2023/02/16 12:22:24;;;;;;;25.73;18.73;;;;;16.50;102042.00;;;;5059753;28;20200;-75
2023/02/16 12:25:00;;;;;;;28.45;19.23;;;;;16.60;102029.00;;;;5053785;28;20188;-75
2023/02/16 12:27:33;;;;;;;26.73;20.13;;;;;16.70;102030.00;;;;5056104;28;20219;-76
2023/02/16 12:30:08;;;;;;;30.20;21.55;;;;;16.70;102028.00;;;;5062702;28;20202;-76
2023/02/16 12:32:53;;;;;;;26.30;18.77;;;;;16.70;102023.00;;;;5059246;28;20281;-76
2023/02/16 12:35:41;;;;;;;28.20;19.63;;;;;16.70;102009.00;;;;5052094;28;20199;-76
2023/02/16 12:38:20;;;;;;;28.02;19.85;;;;;16.80;102001.00;;;;5061535;28;20214;-76
2023/02/16 12:40:56;;;;;;;28.50;18.85;;;;;16.80;101992.00;;;;5057662;28;20192;-76
2023/02/16 12:43:35;;;;;;;26.92;19.92;;;;;16.90;102002.00;;;;5061625;28;20486;-75
2023/02/16 12:46:10;;;;;;;28.10;17.45;;;;;17.00;101995.00;;;;5069551;28;20202;-76
2023/02/16 12:48:45;;;;;;;26.98;19.77;;;;;17.00;101999.00;;;;5068948;28;20220;-76